Asau, Samoa

12:15 PM WSDT on December 08, 2016 (GMT +1400)
Faleolo International | | Change Station

Elev 16 ft 13.83 °S, 172.01 °W | Updated 15 minutes ago

Mostly Cloudy
Mostly Cloudy
88 °F
Feels Like 100 °F
N
12
Wind Variable Wind from NE

Today
High -- | Low -- °F
--% Chance of Precip.
Yesterday
High -- | Low -- °F
Precip. -- in
Pressure 29.80 in
Visibility 6.2 miles
Clouds Scattered Clouds 2200 ft
Mostly Cloudy 12000 ft
Heat Index 100 °F
Dew Point 77 °F
Humidity 70%
Rainfall 0.00 in
Snow Depth Not available.
6:55 AM 7:50 PM
First Quarter, 56% visible
METAR NSFA 072200Z 04010KT 9999 SCT022 BKN120 31/25 Q1009
Pressure 29.80 in
Visibility 6.2 miles
Clouds Scattered Clouds 2200 ft
Mostly Cloudy 12000 ft
Heat Index 100 °F
Dew Point 77 °F
Humidity 70%
Rainfall 0.00 in
Snow Depth Not available.
6:55 AM 7:50 PM
First Quarter, 56% visible
METAR NSFA 072200Z 04010KT 9999 SCT022 BKN120 31/25 Q1009

10-Day Weather Forecast

×

Almanac

Astronomy

Dec. 08, 2016 Rise Set
Actual Time
Civil Twilight
Nautical Twilight
Astronomical Twilight
Moon
Length of Visible Light
Length of Day
Tomorrow will be .
, % of the Moon is Illuminated

Today's Extremes

Country Highs Country Lows

Community

WunderPhotos

Upload Photos

1,956,209 photos uploaded!

WunderBlog® & News

Nearby

Air Quality

  Air Quality AQ Index Pollutant
Not available.

Snow Depth

Station Depth Elevation

Earthquake Activity

City Distance Mag. Time & Date
Minimum magnitude displayed is 2.5.

Coastal Water Temperatures

Place Temperature

Stations

Nearby Weather Stations

Station Location Temp. Windchill Dew Point Humidity Wind Precip. Elev Updated Type